createdAt,value
2022-09-11T00:02:40.645Z,5.18
2022-09-11T00:05:29.533Z,4.63
2022-09-11T00:08:19.946Z,4.70
2022-09-11T00:11:08.867Z,5.15
2022-09-11T00:13:56.513Z,4.97
2022-09-11T00:16:45.953Z,5.32
2022-09-11T00:19:33.189Z,4.50
2022-09-11T00:22:22.003Z,4.75
2022-09-11T00:25:10.038Z,4.25
2022-09-11T00:27:57.274Z,4.80
2022-09-11T00:30:45.339Z,4.97
2022-09-11T00:33:33.509Z,5.93
2022-09-11T00:36:22.799Z,8.82
2022-09-11T00:39:14.198Z,11.25
2022-09-11T00:42:02.110Z,12.85
2022-09-11T00:45:02.458Z,14.38
2022-09-11T00:47:51.514Z,13.23
2022-09-11T00:50:38.541Z,12.52
2022-09-11T00:53:30.284Z,13.27
2022-09-11T00:56:19.946Z,12.07
2022-09-11T00:59:07.773Z,10.82
2022-09-11T01:01:55.386Z,10.25
2022-09-11T01:04:42.531Z,11.25
2022-09-11T01:07:31.267Z,12.18
2022-09-11T01:10:19.087Z,15.32
2022-09-11T01:13:17.523Z,15.88
2022-09-11T01:16:14.160Z,18.02
2022-09-11T01:19:08.658Z,18.67
2022-09-11T01:22:18.226Z,21.40
2022-09-11T01:25:19.305Z,20.67
2022-09-11T01:28:11.559Z,22.80
2022-09-11T01:31:05.021Z,24.75
2022-09-11T01:33:59.538Z,23.67
2022-09-11T01:36:53.695Z,24.45
2022-09-11T01:39:44.797Z,25.70
2022-09-11T01:42:38.021Z,25.25
2022-09-11T01:45:28.002Z,24.13
2022-09-11T01:48:19.376Z,23.02
2022-09-11T01:51:08.313Z,22.05
2022-09-11T01:53:57.222Z,22.80
2022-09-11T01:56:48.578Z,21.40
2022-09-11T01:59:42.108Z,21.55
2022-09-11T02:02:36.681Z,19.58
2022-09-11T02:05:28.938Z,18.50
2022-09-11T02:08:19.577Z,18.33
2022-09-11T02:11:09.134Z,18.23
2022-09-11T02:14:05.335Z,17.55
2022-09-11T02:17:01.917Z,18.73
2022-09-11T02:19:50.550Z,17.23
2022-09-11T02:22:38.316Z,18.42
2022-09-11T02:25:25.562Z,19.83
2022-09-11T02:28:16.751Z,18.67
2022-09-11T02:31:04.142Z,19.02
2022-09-11T02:33:52.257Z,17.60
2022-09-11T02:36:57.275Z,16.67
2022-09-11T02:40:27.082Z,16.60
2022-09-11T02:43:32.707Z,15.40
2022-09-11T02:46:38.889Z,15.65
2022-09-11T02:49:40.571Z,16.63
2022-09-11T02:52:44.915Z,14.27
2022-09-11T02:55:45.703Z,15.15
2022-09-11T02:58:37.419Z,15.20
2022-09-11T03:01:24.930Z,15.90
2022-09-11T03:04:12.714Z,15.60
2022-09-11T03:07:00.434Z,15.55
2022-09-11T03:09:49.246Z,16.27
2022-09-11T03:12:41.409Z,14.55
2022-09-11T03:15:30.321Z,14.20
2022-09-11T03:18:17.594Z,12.73
2022-09-11T03:21:05.777Z,11.80
2022-09-11T03:23:52.699Z,9.68
2022-09-11T03:26:41.497Z,7.97
2022-09-11T03:29:31.649Z,7.28
2022-09-11T03:32:21.139Z,8.23
2022-09-11T03:35:09.445Z,8.18
2022-09-11T03:37:58.001Z,7.78
2022-09-11T03:40:45.329Z,7.53
2022-09-11T03:43:35.097Z,8.13
2022-09-11T03:46:23.742Z,9.07
2022-09-11T03:49:11.121Z,8.90
2022-09-11T03:51:58.983Z,9.48
2022-09-11T03:54:47.613Z,8.60
2022-09-11T03:57:35.130Z,8.90
2022-09-11T04:00:23.764Z,9.13
2022-09-11T04:03:16.757Z,9.25
2022-09-11T04:06:04.989Z,10.05
2022-09-11T04:08:54.157Z,12.63
2022-09-11T04:11:41.393Z,15.55
2022-09-11T04:14:35.654Z,15.45
2022-09-11T04:17:25.417Z,16.15
2022-09-11T04:20:13.932Z,15.35
2022-09-11T04:23:02.943Z,15.95
2022-09-11T04:25:52.357Z,15.25
2022-09-11T04:28:40.090Z,16.60
2022-09-11T04:31:28.342Z,16.25
2022-09-11T04:34:17.874Z,15.65
2022-09-11T04:37:06.064Z,14.50
2022-09-11T04:39:54.167Z,12.98
2022-09-11T04:42:41.899Z,12.43
2022-09-11T04:45:33.587Z,11.48
2022-09-11T04:48:23.171Z,10.38
2022-09-11T04:51:12.343Z,11.18
2022-09-11T04:54:01.126Z,10.60
2022-09-11T04:56:57.933Z,11.75
2022-09-11T04:59:45.137Z,11.85
2022-09-11T05:02:33.644Z,11.25
2022-09-11T05:05:21.323Z,12.18
2022-09-11T05:08:11.485Z,12.77
2022-09-11T05:10:59.978Z,14.32
2022-09-11T05:13:47.505Z,14.20
2022-09-11T05:16:36.034Z,14.43
2022-09-11T05:19:23.527Z,12.93
2022-09-11T05:22:10.801Z,14.15
2022-09-11T05:25:03.503Z,14.27
2022-09-11T05:27:50.717Z,14.10
2022-09-11T05:30:37.804Z,14.98
2022-09-11T05:33:26.225Z,14.80
2022-09-11T05:36:15.190Z,15.55
2022-09-11T05:39:03.630Z,16.08
2022-09-11T05:41:55.251Z,14.50
2022-09-11T05:44:47.179Z,14.40
2022-09-11T05:47:34.486Z,14.27
2022-09-11T05:50:21.895Z,14.43
2022-09-11T05:53:09.239Z,14.48
2022-09-11T05:55:56.684Z,14.18
2022-09-11T05:58:47.137Z,15.35
2022-09-11T06:01:35.463Z,15.38
2022-09-11T06:04:31.432Z,15.57
2022-09-11T06:07:19.963Z,18.13
2022-09-11T06:10:10.145Z,18.30
2022-09-11T06:12:58.002Z,19.38
2022-09-11T06:15:47.443Z,19.98
2022-09-11T06:18:35.035Z,20.13
2022-09-11T06:21:24.579Z,18.38
2022-09-11T06:24:22.577Z,18.77
2022-09-11T06:27:10.080Z,18.02
2022-09-11T06:30:00.930Z,18.70
2022-09-11T06:32:56.505Z,19.17
2022-09-11T06:35:45.801Z,18.17
2022-09-11T06:38:33.513Z,17.35
2022-09-11T06:41:22.244Z,16.08
2022-09-11T06:44:10.265Z,17.38
2022-09-11T06:46:59.327Z,15.77
2022-09-11T06:49:48.941Z,14.25
2022-09-11T06:52:56.286Z,14.68
2022-09-11T06:55:47.684Z,15.35
2022-09-11T06:58:37.197Z,15.57
2022-09-11T07:01:25.267Z,14.70
2022-09-11T07:04:20.048Z,15.13
2022-09-11T07:07:10.554Z,13.88
2022-09-11T07:10:01.065Z,14.23
2022-09-11T07:12:48.589Z,13.48
2022-09-11T07:15:36.146Z,12.13
2022-09-11T07:18:23.367Z,12.40
2022-09-11T07:21:12.221Z,12.60
2022-09-11T07:24:02.262Z,13.05
2022-09-11T07:26:54.803Z,12.35
2022-09-11T07:29:47.926Z,12.00
2022-09-11T07:32:35.314Z,12.38
2022-09-11T07:35:22.657Z,13.27
2022-09-11T07:38:12.931Z,11.63
2022-09-11T07:41:02.710Z,11.57
2022-09-11T07:43:53.776Z,11.00
2022-09-11T07:46:41.497Z,10.15
2022-09-11T07:49:30.641Z,9.95
2022-09-11T07:52:20.553Z,10.90
2022-09-11T07:55:14.530Z,9.57
2022-09-11T07:58:03.181Z,9.18
2022-09-11T08:00:50.354Z,8.20
2022-09-11T08:03:40.314Z,8.23
2022-09-11T08:06:28.601Z,9.18
2022-09-11T08:09:20.188Z,8.65
2022-09-11T08:12:13.828Z,7.97
2022-09-11T08:15:02.572Z,8.85
2022-09-11T08:17:51.933Z,8.20
2022-09-11T08:20:39.197Z,8.70
2022-09-11T08:23:26.493Z,8.98
2022-09-11T08:26:16.229Z,9.23
2022-09-11T08:29:03.304Z,7.82
2022-09-11T08:31:53.694Z,7.95
2022-09-11T08:34:42.689Z,8.13
2022-09-11T08:37:29.642Z,8.80
2022-09-11T08:40:16.992Z,8.13
2022-09-11T08:43:05.742Z,9.20
2022-09-11T08:46:00.161Z,8.35
2022-09-11T08:48:58.109Z,8.38
2022-09-11T08:51:47.191Z,8.18
2022-09-11T08:54:37.945Z,8.52
2022-09-11T08:57:35.045Z,8.45
2022-09-11T09:00:24.954Z,8.18
2022-09-11T09:03:31.668Z,7.82
2022-09-11T09:06:41.615Z,7.88
2022-09-11T09:09:40.325Z,8.00
2022-09-11T09:12:34.071Z,8.13
2022-09-11T09:15:32.548Z,8.02
2022-09-11T09:18:27.979Z,7.78
2022-09-11T09:21:21.846Z,7.53
2022-09-11T09:24:19.380Z,7.50
2022-09-11T09:27:17.039Z,7.20
2022-09-11T09:30:08.010Z,7.22
2022-09-11T09:33:01.677Z,7.00
2022-09-11T09:35:50.273Z,6.93
2022-09-11T09:38:41.332Z,7.05
2022-09-11T09:41:56.827Z,6.63
2022-09-11T09:45:02.351Z,7.00
2022-09-11T09:47:50.361Z,6.35
2022-09-11T09:50:40.629Z,5.95
2022-09-11T09:53:34.413Z,7.38
2022-09-11T09:56:23.679Z,7.22
2022-09-11T09:59:19.482Z,6.82
2022-09-11T10:02:07.869Z,7.63
2022-09-11T10:05:08.621Z,7.07
2022-09-11T10:07:58.050Z,6.35
2022-09-11T10:10:45.053Z,7.30
2022-09-11T10:13:34.201Z,7.30
2022-09-11T10:16:25.224Z,6.80
2022-09-11T10:19:40.599Z,6.57
2022-09-11T10:22:30.801Z,6.28
2022-09-11T10:25:19.709Z,6.57
2022-09-11T10:28:12.789Z,7.07
2022-09-11T10:31:03.152Z,7.15
2022-09-11T10:33:56.459Z,8.30
2022-09-11T10:36:53.922Z,7.78
2022-09-11T10:39:43.014Z,7.03
2022-09-11T10:42:31.732Z,7.22
2022-09-11T10:45:21.937Z,7.55
2022-09-11T10:48:19.227Z,6.50
2022-09-11T10:51:11.791Z,6.55
2022-09-11T10:54:07.488Z,6.22
2022-09-11T10:57:05.452Z,6.15
2022-09-11T11:00:07.624Z,5.45
2022-09-11T11:02:56.967Z,5.57
2022-09-11T11:05:53.843Z,5.78
2022-09-11T11:09:09.096Z,6.60
2022-09-11T11:12:09.710Z,6.43
2022-09-11T11:15:13.647Z,5.78
2022-09-11T11:18:19.718Z,6.35
2022-09-11T11:21:18.191Z,5.78
2022-09-11T11:24:26.893Z,5.43
2022-09-11T11:27:39.821Z,5.63
2022-09-11T11:30:32.241Z,5.57
2022-09-11T11:33:33.786Z,5.03
2022-09-11T11:36:27.092Z,5.07
2022-09-11T11:39:25.055Z,4.75
2022-09-11T11:42:17.129Z,5.15
2022-09-11T11:45:08.943Z,5.20
2022-09-11T11:47:56.633Z,5.18
2022-09-11T11:50:48.086Z,5.57
2022-09-11T11:53:39.945Z,4.80
2022-09-11T11:56:36.052Z,4.75
2022-09-11T11:59:32.073Z,5.10
2022-09-11T12:02:24.704Z,5.15
2022-09-11T12:05:17.135Z,4.68
2022-09-11T12:08:04.695Z,5.10
2022-09-11T12:10:57.206Z,5.03
2022-09-11T12:13:48.793Z,4.45
2022-09-11T12:16:37.720Z,4.03
2022-09-11T12:19:26.156Z,4.40
2022-09-11T12:22:14.404Z,3.63
2022-09-11T12:25:03.308Z,3.88
2022-09-11T12:28:09.203Z,3.97
2022-09-11T12:31:03.325Z,3.55
2022-09-11T12:33:54.461Z,3.60
2022-09-11T12:36:53.782Z,3.17
2022-09-11T12:39:50.941Z,2.88
2022-09-11T12:42:55.142Z,3.20
2022-09-11T12:45:43.688Z,3.15
2022-09-11T12:48:39.329Z,3.67
2022-09-11T12:51:29.969Z,3.72
2022-09-11T12:54:22.833Z,3.80
2022-09-11T12:57:16.888Z,4.13
2022-09-11T13:00:07.992Z,3.28
2022-09-11T13:02:57.522Z,3.17
2022-09-11T13:05:55.220Z,3.13
2022-09-11T13:08:49.903Z,3.33
2022-09-11T13:11:40.193Z,2.60
2022-09-11T13:14:51.604Z,3.13
2022-09-11T13:17:47.176Z,2.88
2022-09-11T13:20:34.201Z,3.03
2022-09-11T13:23:22.687Z,3.25
2022-09-11T13:26:21.390Z,3.30
2022-09-11T13:29:15.099Z,3.05
2022-09-11T13:32:08.265Z,3.20
2022-09-11T13:34:58.701Z,3.10
2022-09-11T13:37:54.386Z,2.55
2022-09-11T13:40:47.021Z,3.00
2022-09-11T13:43:37.832Z,3.90
2022-09-11T13:46:27.888Z,3.22
2022-09-11T13:49:28.488Z,3.28
2022-09-11T13:52:16.343Z,3.08
2022-09-11T13:55:10.587Z,3.13
2022-09-11T13:58:00.867Z,3.15
2022-09-11T14:00:50.178Z,3.63
2022-09-11T14:03:38.248Z,3.45
2022-09-11T14:06:25.326Z,3.72
2022-09-11T14:09:19.423Z,3.60
2022-09-11T14:12:07.464Z,3.05
2022-09-11T14:14:59.494Z,2.83
2022-09-11T14:17:46.905Z,2.63
2022-09-11T14:20:34.405Z,2.33
2022-09-11T14:23:25.152Z,2.42
2022-09-11T14:26:17.697Z,2.13
2022-09-11T14:29:25.978Z,2.40
2022-09-11T14:32:31.620Z,2.20
2022-09-11T14:35:18.419Z,2.55
2022-09-11T14:38:05.578Z,2.30
2022-09-11T14:40:57.167Z,2.10
2022-09-11T14:43:48.872Z,2.03
2022-09-11T14:46:37.058Z,1.98
2022-09-11T14:49:25.572Z,2.28
2022-09-11T14:52:14.367Z,1.90
2022-09-11T14:55:02.169Z,2.10
2022-09-11T14:57:49.582Z,2.20
2022-09-11T15:00:36.895Z,2.40
2022-09-11T15:03:25.259Z,2.33
2022-09-11T15:06:20.490Z,2.30
2022-09-11T15:09:07.666Z,2.60
2022-09-11T15:11:55.043Z,2.63
2022-09-11T15:14:56.670Z,2.67
2022-09-11T15:17:46.115Z,2.50
2022-09-11T15:20:33.331Z,2.28
2022-09-11T15:23:21.973Z,3.00
2022-09-11T15:26:11.818Z,2.60
2022-09-11T15:28:58.931Z,2.65
2022-09-11T15:31:47.262Z,2.75
2022-09-11T15:34:34.725Z,3.15
2022-09-11T15:37:23.591Z,2.80
2022-09-11T15:40:12.955Z,3.15
2022-09-11T15:42:59.988Z,3.00
2022-09-11T15:45:47.298Z,2.97
2022-09-11T15:48:34.592Z,5.50
2022-09-11T15:51:24.592Z,4.13
2022-09-11T15:54:13.505Z,4.10
2022-09-11T15:57:02.175Z,3.63
2022-09-11T15:59:51.561Z,3.40
2022-09-11T16:02:38.753Z,3.22
2022-09-11T16:05:26.054Z,3.20
2022-09-11T16:08:15.277Z,2.55
2022-09-11T16:11:04.987Z,2.70
2022-09-11T16:13:54.909Z,2.20
2022-09-11T16:16:42.166Z,2.63
2022-09-11T16:19:30.872Z,2.28
2022-09-11T16:22:17.987Z,2.13
2022-09-11T16:25:06.100Z,2.20
2022-09-11T16:27:53.423Z,1.73
2022-09-11T16:30:45.677Z,1.70
2022-09-11T16:33:37.635Z,1.60
2022-09-11T16:36:25.276Z,1.70
2022-09-11T16:39:13.794Z,1.90
2022-09-11T16:42:02.079Z,1.98
2022-09-11T16:44:49.771Z,1.80
2022-09-11T16:47:38.111Z,2.35
2022-09-11T16:50:25.496Z,2.28
2022-09-11T16:53:13.876Z,1.65
2022-09-11T16:56:04.554Z,1.70
2022-09-11T16:58:51.708Z,1.70
2022-09-11T17:01:39.935Z,1.92
2022-09-11T17:04:28.674Z,1.73
2022-09-11T17:07:15.682Z,1.90
2022-09-11T17:10:02.713Z,2.03
2022-09-11T17:12:51.004Z,2.05
2022-09-11T17:15:38.077Z,1.80
2022-09-11T17:18:25.433Z,1.95
2022-09-11T17:21:14.492Z,1.90
2022-09-11T17:24:01.862Z,1.92
2022-09-11T17:26:50.655Z,1.90
2022-09-11T17:29:42.425Z,2.10
2022-09-11T17:32:31.534Z,2.45
2022-09-11T17:35:19.739Z,2.35
2022-09-11T17:38:09.299Z,2.20
2022-09-11T17:40:57.755Z,2.17
2022-09-11T17:43:45.318Z,2.58
2022-09-11T17:46:33.496Z,2.30
2022-09-11T17:49:20.948Z,2.30
2022-09-11T17:52:08.293Z,1.83
2022-09-11T17:54:56.953Z,2.33
2022-09-11T17:57:45.406Z,2.20
2022-09-11T18:00:32.465Z,2.28
2022-09-11T18:03:22.754Z,2.30
2022-09-11T18:06:19.615Z,2.35
2022-09-11T18:09:11.950Z,2.60
2022-09-11T18:12:03.433Z,2.13
2022-09-11T18:14:52.995Z,2.75
2022-09-11T18:17:40.253Z,2.40
2022-09-11T18:20:27.628Z,2.92
2022-09-11T18:23:16.589Z,2.80
2022-09-11T18:26:03.577Z,2.95
2022-09-11T18:28:56.378Z,3.42
2022-09-11T18:31:45.825Z,3.40
2022-09-11T18:34:33.067Z,3.65
2022-09-11T18:37:22.297Z,3.25
2022-09-11T18:40:09.769Z,3.20
2022-09-11T18:42:56.906Z,4.00
2022-09-11T18:45:45.390Z,4.15
2022-09-11T18:48:32.619Z,4.50
2022-09-11T18:51:20.574Z,4.30
2022-09-11T18:54:07.643Z,4.32
2022-09-11T18:56:54.612Z,4.60
2022-09-11T18:59:42.002Z,4.25
2022-09-11T19:02:30.598Z,5.07
2022-09-11T19:05:18.716Z,4.90
2022-09-11T19:08:06.029Z,4.70
2022-09-11T19:10:53.020Z,4.35
2022-09-11T19:13:40.949Z,4.75
2022-09-11T19:16:28.414Z,4.75
2022-09-11T19:19:17.216Z,4.90
2022-09-11T19:22:04.491Z,4.55
2022-09-11T19:24:52.108Z,4.18
2022-09-11T19:27:39.193Z,4.28
2022-09-11T19:30:26.091Z,4.43
2022-09-11T19:33:13.346Z,4.88
2022-09-11T19:36:04.395Z,4.50
2022-09-11T19:38:52.923Z,5.15
2022-09-11T19:41:40.824Z,5.63
2022-09-11T19:44:27.678Z,5.85
2022-09-11T19:47:14.764Z,5.97
2022-09-11T19:50:02.256Z,5.53
2022-09-11T19:52:50.847Z,7.25
2022-09-11T19:55:38.047Z,7.93
2022-09-11T19:58:25.925Z,8.60
2022-09-11T20:01:14.604Z,7.38
2022-09-11T20:04:02.165Z,6.90
2022-09-11T20:09:36.900Z,6.50
2022-09-11T20:12:24.274Z,6.78
2022-09-11T20:15:12.366Z,6.00
2022-09-11T20:18:00.433Z,7.57
2022-09-11T20:20:47.500Z,5.95
2022-09-11T20:23:35.106Z,6.78
2022-09-11T20:26:25.665Z,7.13
2022-09-11T20:29:14.855Z,5.95
2022-09-11T20:32:02.041Z,6.03
2022-09-11T20:34:49.261Z,5.47
2022-09-11T20:37:36.391Z,5.82
2022-09-11T20:40:23.334Z,5.25
2022-09-11T20:43:11.887Z,5.35
2022-09-11T20:46:00.498Z,5.25
2022-09-11T20:48:49.993Z,5.70
2022-09-11T20:51:36.922Z,5.20
2022-09-11T20:54:24.239Z,5.10
2022-09-11T20:57:11.640Z,5.85
2022-09-11T21:00:00.769Z,5.80
2022-09-11T21:02:47.962Z,5.47
2022-09-11T21:05:36.491Z,5.68
2022-09-11T21:08:25.483Z,5.65
2022-09-11T21:11:13.360Z,5.25
2022-09-11T21:14:01.044Z,5.25
2022-09-11T21:16:49.467Z,5.07
2022-09-11T21:19:36.589Z,5.15
2022-09-11T21:22:23.838Z,5.22
2022-09-11T21:25:11.367Z,4.82
2022-09-11T21:27:59.144Z,5.28
2022-09-11T21:30:46.414Z,5.57
2022-09-11T21:33:35.334Z,5.20
2022-09-11T21:36:23.022Z,4.97
2022-09-11T21:39:10.277Z,5.25
2022-09-11T21:41:57.495Z,5.10
2022-09-11T21:44:44.781Z,5.22
2022-09-11T21:47:32.164Z,5.38
2022-09-11T21:50:21.088Z,4.60
2022-09-11T21:53:09.280Z,5.82
2022-09-11T21:55:56.645Z,5.05
2022-09-11T21:58:43.838Z,4.97
2022-09-11T22:01:32.601Z,4.95
2022-09-11T22:04:19.742Z,4.80
2022-09-11T22:07:08.319Z,5.38
2022-09-11T22:09:55.631Z,5.68
2022-09-11T22:12:42.656Z,4.70
2022-09-11T22:15:29.894Z,4.70
2022-09-11T22:18:18.478Z,4.93
2022-09-11T22:21:06.010Z,4.57
2022-09-11T22:23:55.267Z,5.00
2022-09-11T22:26:42.439Z,4.65
2022-09-11T22:29:29.745Z,4.82
2022-09-11T22:32:16.885Z,4.97
2022-09-11T22:35:04.270Z,4.82
2022-09-11T22:37:51.273Z,4.82
2022-09-11T22:40:39.704Z,5.13
2022-09-11T22:43:27.054Z,4.85
2022-09-11T22:46:14.420Z,4.60
2022-09-11T22:49:03.309Z,4.38
2022-09-11T22:51:50.430Z,4.15
2022-09-11T22:54:37.857Z,3.80
2022-09-11T22:57:29.094Z,3.13
2022-09-11T23:00:19.663Z,3.50
2022-09-11T23:03:06.539Z,3.38
2022-09-11T23:06:14.500Z,2.80
2022-09-11T23:09:03.447Z,2.92
2022-09-11T23:11:50.315Z,2.97
2022-09-11T23:14:38.790Z,2.85
2022-09-11T23:17:26.350Z,3.13
2022-09-11T23:20:13.876Z,2.72
2022-09-11T23:23:03.521Z,2.70
2022-09-11T23:25:50.930Z,2.53
2022-09-11T23:28:38.814Z,2.90
2022-09-11T23:31:29.811Z,3.13
2022-09-11T23:34:17.823Z,2.92
2022-09-11T23:37:05.103Z,3.35
2022-09-11T23:39:52.373Z,2.95
2022-09-11T23:42:39.201Z,2.65
2022-09-11T23:45:26.728Z,2.70
2022-09-11T23:48:15.030Z,2.70
2022-09-11T23:51:02.747Z,2.88
2022-09-11T23:53:51.646Z,2.80
2022-09-11T23:56:38.978Z,2.58
2022-09-11T23:59:26.606Z,2.90
